Time;durP1;ratioP1;P1;durP2;ratioP2;P2;SDS_P1;SDS_P2;PMS_P1;PMS_P2;Temp;Humidity;BMP_temperature;BMP_pressure;BME280_temperature;BME280_humidity;BME280_pressure;Samples;Min_cycle;Max_cycle;Signal;HPM_P1;HPM_P2
2022/04/25 00:02:24;;;;;;;;;;;8.30;99.90;;;;;;5010291;28;19936;-72
2022/04/25 00:04:56;;;;;;;;;;;8.20;99.90;;;;;;5011738;28;19933;-72
2022/04/25 00:07:23;;;;;;;;;;;8.20;99.90;;;;;;5009447;28;20298;-72
2022/04/25 00:09:54;;;;;;;;;;;8.20;99.90;;;;;;5024907;28;20096;-73
2022/04/25 00:12:26;;;;;;;;;;;8.20;99.90;;;;;;5022555;28;20301;-72
2022/04/25 00:14:57;;;;;;;;;;;8.20;99.90;;;;;;5005454;28;19930;-72
2022/04/25 00:17:29;;;;;;;;;;;8.20;99.90;;;;;;5010093;28;20329;-72
2022/04/25 00:20:01;;;;;;;;;;;8.30;99.90;;;;;;5010970;28;19925;-72
2022/04/25 00:22:32;;;;;;;;;;;8.20;99.90;;;;;;5005610;28;20492;-72
2022/04/25 00:24:59;;;;;;;;;;;8.30;99.90;;;;;;5006380;28;20433;-72
2022/04/25 00:27:31;;;;;;;;;;;8.20;99.90;;;;;;5004009;28;20405;-72
2022/04/25 00:30:02;;;;;;;;;;;8.20;99.90;;;;;;5007747;28;20012;-72
2022/04/25 00:32:29;;;;;;;;;;;8.20;99.90;;;;;;5007164;28;20272;-73
2022/04/25 00:35:03;;;;;;;;;;;8.20;99.90;;;;;;5003157;28;19930;-72
2022/04/25 00:37:34;;;;;;;;;;;8.20;99.90;;;;;;5006791;28;19929;-72
2022/04/25 00:40:06;;;;;;;;;;;8.20;99.90;;;;;;5007690;28;20638;-72
2022/04/25 00:42:33;;;;;;;;;;;8.20;99.90;;;;;;5007220;28;19932;-73
2022/04/25 00:45:05;;;;;;;;;;;8.20;99.90;;;;;;5002670;28;19948;-72
2022/04/25 00:47:37;;;;;;;;;;;8.20;99.90;;;;;;5001612;28;20353;-72
2022/04/25 00:50:09;;;;;;;;;;;8.20;99.90;;;;;;5010331;28;20489;-72
2022/04/25 00:52:40;;;;;;;;;;;8.20;99.90;;;;;;5000836;28;20302;-72
2022/04/25 00:55:12;;;;;;;;;;;8.20;99.90;;;;;;5003142;28;19931;-73
2022/04/25 00:57:44;;;;;;;;;;;8.30;99.90;;;;;;5005267;28;20028;-72
2022/04/25 01:00:15;;;;;;;;;;;8.30;99.90;;;;;;4998193;28;19925;-73
2022/04/25 01:02:47;;;;;;;;;;;8.20;99.90;;;;;;4995321;28;19925;-73
2022/04/25 01:05:19;;;;;;;;;;;8.20;99.90;;;;;;5003675;28;19925;-73
2022/04/25 01:07:50;;;;;;;;;;;8.30;99.90;;;;;;5001007;28;20047;-73
2022/04/25 01:10:22;;;;;;;;;;;8.20;99.90;;;;;;5001052;28;19925;-73
2022/04/25 01:12:48;;;;;;;;;;;8.20;99.90;;;;;;5007486;28;19930;-73
2022/04/25 01:15:22;;;;;;;;;;;8.20;99.90;;;;;;5007203;28;19937;-73
2022/04/25 01:17:48;;;;;;;;;;;8.20;99.90;;;;;;5007390;28;19930;-73
2022/04/25 01:20:15;;;;;;;;;;;8.20;99.90;;;;;;5009005;28;19940;-73
2022/04/25 01:22:51;;;;;;;;;;;8.20;99.90;;;;;;4984258;28;19930;-72
2022/04/25 01:28:08;;;;;;;;;;;8.20;99.90;;;;;;5002769;28;19930;-72
2022/04/25 01:30:40;;;;;;;;;;;8.20;99.90;;;;;;5007886;28;20016;-72
2022/04/25 01:33:12;;;;;;;;;;;8.20;99.90;;;;;;4990454;28;19933;-71
2022/04/25 01:35:43;;;;;;;;;;;8.20;99.90;;;;;;5018903;28;19937;-73
2022/04/25 01:38:15;;;;;;;;;;;8.20;99.90;;;;;;4984809;28;20497;-72
2022/04/25 01:40:46;;;;;;;;;;;8.20;99.90;;;;;;5006119;28;19930;-73
2022/04/25 01:43:18;;;;;;;;;;;8.20;99.90;;;;;;4996040;28;19932;-73
2022/04/25 01:45:50;;;;;;;;;;;8.20;99.90;;;;;;4999223;28;20047;-71
2022/04/25 01:48:21;;;;;;;;;;;8.20;99.90;;;;;;5002114;28;19929;-72
2022/04/25 01:50:49;;;;;;;;;;;8.20;99.90;;;;;;4991077;28;19929;-72
2022/04/25 01:53:21;;;;;;;;;;;8.10;99.90;;;;;;4990909;28;19926;-72
2022/04/25 01:55:52;;;;;;;;;;;8.10;99.90;;;;;;5002897;28;19933;-72
2022/04/25 01:58:25;;;;;;;;;;;8.10;99.90;;;;;;4998653;28;19933;-73
2022/04/25 02:00:56;;;;;;;;;;;8.10;99.90;;;;;;5008192;28;19990;-73
2022/04/25 02:03:28;;;;;;;;;;;8.10;99.90;;;;;;5007570;28;19929;-72
2022/04/25 02:05:55;;;;;;;;;;;8.10;99.90;;;;;;5000817;28;19937;-71
2022/04/25 02:08:21;;;;;;;;;;;8.10;99.90;;;;;;5009017;28;19926;-72
2022/04/25 02:13:43;;;;;;;;;;;8.10;99.90;;;;;;5002276;28;19926;-73
2022/04/25 02:16:15;;;;;;;;;;;8.10;99.90;;;;;;5004471;28;20405;-72
2022/04/25 02:18:47;;;;;;;;;;;8.10;99.90;;;;;;5004472;28;19932;-73
2022/04/25 02:21:19;;;;;;;;;;;8.10;99.90;;;;;;5025707;28;19933;-72
2022/04/25 02:23:50;;;;;;;;;;;8.10;99.90;;;;;;5002151;28;20419;-72
2022/04/25 02:26:22;;;;;;;;;;;8.10;99.90;;;;;;5019897;28;20013;-72
2022/04/25 02:28:54;;;;;;;;;;;8.10;99.90;;;;;;5000436;28;19926;-73
2022/04/25 02:31:21;;;;;;;;;;;8.10;99.90;;;;;;4983433;28;19937;-72
2022/04/25 02:33:48;;;;;;;;;;;8.10;99.90;;;;;;4999078;28;19933;-72
2022/04/25 02:36:14;;;;;;;;;;;8.10;99.90;;;;;;4993235;28;20442;-73
2022/04/25 02:38:46;;;;;;;;;;;8.10;99.90;;;;;;5004686;28;20020;-73
2022/04/25 02:41:17;;;;;;;;;;;8.10;99.90;;;;;;5000510;28;20305;-71
2022/04/25 02:43:49;;;;;;;;;;;8.10;99.90;;;;;;5003970;28;19925;-72
2022/04/25 02:46:21;;;;;;;;;;;8.10;99.90;;;;;;5003951;28;19941;-72
2022/04/25 02:48:52;;;;;;;;;;;8.10;99.90;;;;;;5014923;28;19925;-71
2022/04/25 02:51:19;;;;;;;;;;;8.10;99.90;;;;;;5017810;28;19961;-72
2022/04/25 02:53:50;;;;;;;;;;;8.20;99.90;;;;;;5002430;28;19929;-71
2022/04/25 02:56:22;;;;;;;;;;;8.20;99.90;;;;;;5006258;28;19933;-72
2022/04/25 02:58:54;;;;;;;;;;;8.20;99.90;;;;;;5002957;28;19930;-73
2022/04/25 03:01:25;;;;;;;;;;;8.20;99.90;;;;;;5023697;28;19929;-71
2022/04/25 03:03:57;;;;;;;;;;;8.20;99.90;;;;;;5015336;28;19926;-72
2022/04/25 03:06:28;;;;;;;;;;;8.20;99.90;;;;;;5006341;28;19932;-73
2022/04/25 03:08:55;;;;;;;;;;;8.20;99.90;;;;;;4987110;28;19934;-72
2022/04/25 03:11:26;;;;;;;;;;;8.20;99.90;;;;;;5001053;28;19929;-73
2022/04/25 03:13:58;;;;;;;;;;;8.20;99.90;;;;;;5012081;28;19930;-71
2022/04/25 03:16:30;;;;;;;;;;;8.20;99.90;;;;;;5009620;28;20635;-73
2022/04/25 03:19:01;;;;;;;;;;;8.20;99.90;;;;;;5001023;28;20466;-73
2022/04/25 03:21:33;;;;;;;;;;;8.20;99.90;;;;;;5003217;28;19930;-72
2022/04/25 03:24:05;;;;;;;;;;;8.20;99.90;;;;;;5014762;28;19933;-72
2022/04/25 03:26:37;;;;;;;;;;;8.20;99.90;;;;;;5004599;28;19929;-73
2022/04/25 03:29:08;;;;;;;;;;;8.20;99.90;;;;;;4984991;28;19936;-73
2022/04/25 03:31:35;;;;;;;;;;;8.30;99.90;;;;;;4993604;28;20376;-72
2022/04/25 03:34:06;;;;;;;;;;;8.30;99.90;;;;;;5003428;28;19929;-72
2022/04/25 03:36:38;;;;;;;;;;;8.30;99.90;;;;;;5020195;28;19930;-72
2022/04/25 03:39:05;;;;;;;;;;;8.30;99.90;;;;;;5002590;28;20334;-72
2022/04/25 03:41:37;;;;;;;;;;;8.30;99.90;;;;;;5012327;28;20358;-73
2022/04/25 03:44:09;;;;;;;;;;;8.30;99.90;;;;;;4984090;28;19933;-73
2022/04/25 03:46:35;;;;;;;;;;;8.30;99.90;;;;;;5001762;28;19929;-73
2022/04/25 03:49:07;;;;;;;;;;;8.30;99.90;;;;;;5005823;28;19940;-72
2022/04/25 03:51:38;;;;;;;;;;;8.30;99.90;;;;;;5004274;28;19936;-73
2022/04/25 03:54:10;;;;;;;;;;;8.30;99.90;;;;;;5001761;28;19936;-72
2022/04/25 03:59:32;;;;;;;;;;;8.30;99.90;;;;;;5005313;28;19936;-72
2022/04/25 04:02:04;;;;;;;;;;;8.30;99.90;;;;;;5003140;28;19926;-71
2022/04/25 04:04:36;;;;;;;;;;;8.30;99.90;;;;;;5005944;28;19937;-71
2022/04/25 04:07:08;;;;;;;;;;;8.30;99.90;;;;;;5007842;28;19929;-77
2022/04/25 04:09:47;;;;;;;;;;;8.30;99.90;;;;;;5022167;28;19933;-72
2022/04/25 04:12:19;;;;;;;;;;;8.30;99.90;;;;;;5004510;28;19925;-72
2022/04/25 04:14:51;;;;;;;;;;;8.30;99.90;;;;;;5017404;28;20405;-72
2022/04/25 04:17:18;;;;;;;;;;;8.30;99.90;;;;;;5004942;28;20028;-72
2022/04/25 04:19:46;;;;;;;;;;;8.30;99.90;;;;;;5002863;28;19930;-73
2022/04/25 04:22:13;;;;;;;;;;;8.30;99.90;;;;;;4980724;28;19925;-71
2022/04/25 04:24:45;;;;;;;;;;;8.30;99.90;;;;;;4988009;28;19945;-73
2022/04/25 04:27:17;;;;;;;;;;;8.30;99.90;;;;;;5015807;28;19941;-72
2022/04/25 04:29:49;;;;;;;;;;;8.40;99.90;;;;;;5012997;28;19929;-73
2022/04/25 04:32:21;;;;;;;;;;;8.40;99.90;;;;;;5002301;28;19932;-73
2022/04/25 04:34:52;;;;;;;;;;;8.50;99.90;;;;;;5006024;28;20017;-71
2022/04/25 04:37:19;;;;;;;;;;;8.50;99.90;;;;;;5000344;28;19936;-71
2022/04/25 04:39:51;;;;;;;;;;;8.40;99.90;;;;;;5023617;28;19929;-71
2022/04/25 04:42:17;;;;;;;;;;;8.40;99.90;;;;;;5002642;28;19984;-71
2022/04/25 04:44:50;;;;;;;;;;;8.40;99.90;;;;;;5003090;28;20428;-71
2022/04/25 04:47:21;;;;;;;;;;;8.40;99.90;;;;;;5004435;28;19956;-72
2022/04/25 04:49:55;;;;;;;;;;;8.30;99.90;;;;;;5021715;28;19936;-70
2022/04/25 04:52:26;;;;;;;;;;;8.30;99.90;;;;;;5006670;28;19937;-72
2022/04/25 04:54:53;;;;;;;;;;;8.40;99.90;;;;;;5007329;28;19932;-71
2022/04/25 04:57:24;;;;;;;;;;;8.40;99.90;;;;;;5005606;28;19926;-72
2022/04/25 04:59:56;;;;;;;;;;;8.40;99.90;;;;;;5007227;28;19963;-71
2022/04/25 05:02:28;;;;;;;;;;;8.40;99.90;;;;;;5021595;28;20351;-71
2022/04/25 05:04:54;;;;;;;;;;;8.40;99.90;;;;;;4989779;28;19936;-71
2022/04/25 05:07:26;;;;;;;;;;;8.40;99.90;;;;;;5007422;28;19925;-71
2022/04/25 05:09:53;;;;;;;;;;;8.40;99.90;;;;;;5024144;28;20052;-70
2022/04/25 05:12:26;;;;;;;;;;;8.40;99.90;;;;;;5002266;28;19925;-72
2022/04/25 05:14:54;;;;;;;;;;;8.50;99.90;;;;;;5016730;28;19925;-71
2022/04/25 05:17:21;;;;;;;;;;;8.50;99.90;;;;;;5007640;28;19934;-72
2022/04/25 05:19:52;;;;;;;;;;;8.50;99.90;;;;;;5002606;28;19968;-71
2022/04/25 05:22:24;;;;;;;;;;;8.50;99.90;;;;;;5005195;28;19936;-69
2022/04/25 05:24:58;;;;;;;;;;;8.50;99.90;;;;;;4999506;28;19933;-71
2022/04/25 05:27:29;;;;;;;;;;;8.50;99.90;;;;;;5004784;28;20458;-72
2022/04/25 05:29:56;;;;;;;;;;;8.50;99.90;;;;;;5004894;28;19940;-70
2022/04/25 05:32:39;;;;;;;;;;;8.50;99.90;;;;;;5005601;28;19929;-70
2022/04/25 05:35:06;;;;;;;;;;;8.50;99.90;;;;;;5003199;28;19933;-70
2022/04/25 05:37:38;;;;;;;;;;;8.50;99.90;;;;;;5004088;28;19925;-72
2022/04/25 05:40:05;;;;;;;;;;;8.60;99.90;;;;;;5005429;28;19930;-72
2022/04/25 05:42:38;;;;;;;;;;;8.70;99.90;;;;;;5017073;28;19929;-72
2022/04/25 05:45:05;;;;;;;;;;;8.70;99.90;;;;;;5002900;28;19925;-72
2022/04/25 05:47:37;;;;;;;;;;;8.70;99.90;;;;;;5021251;28;20398;-72
2022/04/25 05:52:55;;;;;;;;;;;8.70;99.90;;;;;;5004339;28;19941;-71
2022/04/25 05:55:23;;;;;;;;;;;8.80;99.90;;;;;;5004007;28;19933;-69
2022/04/25 05:57:55;;;;;;;;;;;8.80;99.90;;;;;;4990339;28;19933;-71
2022/04/25 06:00:27;;;;;;;;;;;8.80;99.90;;;;;;5008105;28;19940;-71
2022/04/25 06:03:00;;;;;;;;;;;8.80;99.90;;;;;;5002531;28;20725;-70
2022/04/25 06:05:32;;;;;;;;;;;8.90;99.90;;;;;;5001054;28;19926;-72
2022/04/25 06:08:03;;;;;;;;;;;8.90;99.90;;;;;;5005678;28;19937;-70
2022/04/25 06:10:30;;;;;;;;;;;8.90;99.90;;;;;;5004218;28;19937;-70
2022/04/25 06:13:02;;;;;;;;;;;9.00;99.90;;;;;;5006301;28;19937;-70
2022/04/25 06:15:31;;;;;;;;;;;9.10;99.90;;;;;;5003943;28;19933;-71
2022/04/25 06:17:58;;;;;;;;;;;9.10;99.90;;;;;;5003674;28;19946;-70
2022/04/25 06:20:30;;;;;;;;;;;9.10;99.90;;;;;;5004768;28;20820;-71
2022/04/25 06:23:02;;;;;;;;;;;9.10;99.90;;;;;;5004681;28;19930;-70
2022/04/25 06:25:36;;;;;;;;;;;9.10;99.90;;;;;;5002868;28;19932;-71
2022/04/25 06:28:08;;;;;;;;;;;9.20;99.90;;;;;;5002550;28;20297;-71
2022/04/25 06:30:40;;;;;;;;;;;9.30;99.90;;;;;;5006457;28;19929;-70
2022/04/25 06:33:12;;;;;;;;;;;9.30;99.90;;;;;;5004792;28;19932;-71
2022/04/25 06:35:46;;;;;;;;;;;9.40;99.90;;;;;;5002428;28;19929;-71
2022/04/25 06:38:18;;;;;;;;;;;9.40;99.90;;;;;;4990050;28;19932;-71
2022/04/25 06:40:51;;;;;;;;;;;9.40;99.90;;;;;;5022859;28;20021;-73
2022/04/25 06:43:22;;;;;;;;;;;9.50;99.90;;;;;;5007548;28;20449;-71
2022/04/25 06:45:49;;;;;;;;;;;9.50;99.90;;;;;;5016127;28;19926;-71
2022/04/25 06:48:16;;;;;;;;;;;9.60;99.90;;;;;;5021416;28;19929;-68
2022/04/25 06:50:48;;;;;;;;;;;9.70;99.90;;;;;;5003349;28;19980;-71
2022/04/25 06:53:20;;;;;;;;;;;9.70;99.90;;;;;;5004677;28;19932;-70
2022/04/25 06:55:52;;;;;;;;;;;9.80;99.90;;;;;;5006969;28;20294;-71
2022/04/25 06:58:18;;;;;;;;;;;9.80;99.90;;;;;;5012291;28;19936;-73
2022/04/25 07:00:51;;;;;;;;;;;9.80;99.90;;;;;;4994564;28;20316;-71
2022/04/25 07:03:17;;;;;;;;;;;9.80;99.90;;;;;;5009633;28;19935;-71
2022/04/25 07:05:52;;;;;;;;;;;9.80;99.90;;;;;;5010245;28;19925;-70
2022/04/25 07:08:23;;;;;;;;;;;9.80;99.90;;;;;;5003540;28;20028;-71
2022/04/25 07:10:55;;;;;;;;;;;10.00;99.90;;;;;;5011211;28;19925;-70
2022/04/25 07:13:27;;;;;;;;;;;10.00;99.90;;;;;;5005398;28;19930;-71
2022/04/25 07:15:53;;;;;;;;;;;10.10;99.90;;;;;;4991124;28;20020;-71
2022/04/25 07:18:25;;;;;;;;;;;10.10;99.90;;;;;;5006904;28;19926;-71
2022/04/25 07:20:51;;;;;;;;;;;10.10;99.90;;;;;;5010923;28;19933;-71
2022/04/25 07:28:58;;;;;;;;;;;10.10;99.90;;;;;;5025531;28;20364;-70
2022/04/25 07:31:25;;;;;;;;;;;10.10;99.90;;;;;;5006992;28;20421;-70
2022/04/25 07:33:59;;;;;;;;;;;10.10;99.90;;;;;;5008436;28;20556;-70
2022/04/25 07:36:26;;;;;;;;;;;10.10;99.90;;;;;;5008945;28;19926;-70
2022/04/25 07:38:58;;;;;;;;;;;10.10;99.90;;;;;;4989841;28;19932;-71
2022/04/25 07:41:27;;;;;;;;;;;10.20;99.90;;;;;;4994061;28;19932;-71
2022/04/25 07:43:54;;;;;;;;;;;10.20;99.90;;;;;;5000470;28;19991;-71
2022/04/25 07:46:26;;;;;;;;;;;10.30;99.90;;;;;;5008229;28;20024;-70
2022/04/25 07:48:53;;;;;;;;;;;10.30;99.90;;;;;;4987804;28;19941;-70
2022/04/25 07:51:25;;;;;;;;;;;10.40;99.90;;;;;;5008576;28;20005;-71
2022/04/25 07:53:56;;;;;;;;;;;10.50;99.90;;;;;;5002769;28;19941;-70
2022/04/25 07:56:28;;;;;;;;;;;10.60;99.90;;;;;;5005572;28;19949;-71
2022/04/25 07:59:02;;;;;;;;;;;10.80;99.90;;;;;;5008949;28;19933;-71
2022/04/25 08:01:34;;;;;;;;;;;11.00;99.90;;;;;;5008356;28;19936;-71
2022/04/25 08:04:06;;;;;;;;;;;11.10;99.90;;;;;;4991662;28;19926;-71
2022/04/25 08:06:38;;;;;;;;;;;11.20;99.90;;;;;;5001401;28;20298;-69
2022/04/25 08:09:10;;;;;;;;;;;11.10;99.90;;;;;;5009174;28;19926;-71
2022/04/25 08:11:42;;;;;;;;;;;11.10;99.90;;;;;;5004316;28;20579;-71
2022/04/25 08:19:49;;;;;;;;;;;10.90;99.90;;;;;;5007246;28;19926;-70
2022/04/25 08:22:20;;;;;;;;;;;10.90;99.90;;;;;;5007135;28;20572;-71
2022/04/25 08:24:47;;;;;;;;;;;10.90;99.90;;;;;;5006122;28;19936;-70
2022/04/25 08:27:18;;;;;;;;;;;10.90;99.90;;;;;;5006250;28;20383;-71
2022/04/25 08:29:50;;;;;;;;;;;11.00;99.90;;;;;;5005285;28;19930;-71
2022/04/25 08:32:22;;;;;;;;;;;11.10;99.90;;;;;;5007630;28;19925;-71
2022/04/25 08:34:48;;;;;;;;;;;11.20;99.90;;;;;;5003570;28;19929;-72
2022/04/25 08:37:20;;;;;;;;;;;11.40;99.90;;;;;;5006898;28;20028;-69
2022/04/25 08:39:46;;;;;;;;;;;11.50;99.90;;;;;;4990666;28;19937;-71
2022/04/25 08:42:13;;;;;;;;;;;11.70;99.90;;;;;;5011783;28;20382;-70
2022/04/25 08:44:45;;;;;;;;;;;11.60;99.90;;;;;;5010974;28;20012;-70
2022/04/25 08:47:17;;;;;;;;;;;11.50;99.90;;;;;;4999650;28;19936;-69
2022/04/25 08:49:48;;;;;;;;;;;11.50;99.90;;;;;;5012404;28;20305;-70
2022/04/25 08:52:20;;;;;;;;;;;11.50;99.90;;;;;;5012387;28;19932;-70
2022/04/25 08:54:53;;;;;;;;;;;11.50;99.90;;;;;;5012646;28;19929;-70
2022/04/25 08:57:25;;;;;;;;;;;11.50;99.90;;;;;;4992875;28;20279;-71
2022/04/25 08:59:58;;;;;;;;;;;11.50;99.90;;;;;;4999873;28;19935;-70
2022/04/25 09:02:30;;;;;;;;;;;11.50;99.90;;;;;;5013232;28;20398;-70
2022/04/25 09:05:01;;;;;;;;;;;11.60;99.90;;;;;;5010479;28;19933;-70
2022/04/25 09:07:28;;;;;;;;;;;11.70;99.90;;;;;;5013316;28;20244;-70
2022/04/25 09:10:00;;;;;;;;;;;11.70;99.90;;;;;;5012017;28;20301;-69
2022/04/25 09:12:31;;;;;;;;;;;11.70;99.90;;;;;;4993447;28;19929;-70
2022/04/25 09:15:04;;;;;;;;;;;11.60;99.90;;;;;;5003687;28;20020;-70
2022/04/25 09:17:31;;;;;;;;;;;11.60;99.90;;;;;;5009507;28;19933;-70
2022/04/25 09:20:03;;;;;;;;;;;11.60;99.90;;;;;;5011808;28;19925;-71
2022/04/25 09:22:31;;;;;;;;;;;11.50;99.90;;;;;;5006205;28;19932;-72
2022/04/25 09:25:04;;;;;;;;;;;11.60;99.90;;;;;;5000380;28;20412;-72
2022/04/25 09:27:36;;;;;;;;;;;11.70;99.90;;;;;;5007500;28;20385;-73
2022/04/25 09:30:16;;;;;;;;;;;11.80;99.90;;;;;;5011347;28;19925;-70
2022/04/25 09:32:49;;;;;;;;;;;12.00;99.90;;;;;;4999620;28;19930;-71
2022/04/25 09:35:28;;;;;;;;;;;12.10;99.90;;;;;;4986487;28;20380;-69
2022/04/25 09:37:56;;;;;;;;;;;12.20;99.90;;;;;;4997870;28;19964;-70
2022/04/25 09:40:29;;;;;;;;;;;12.30;99.90;;;;;;4992082;28;19939;-69
2022/04/25 09:43:08;;;;;;;;;;;12.30;99.90;;;;;;4991577;28;19932;-69
2022/04/25 09:45:42;;;;;;;;;;;12.40;99.90;;;;;;4992823;28;19964;-70
2022/04/25 09:48:18;;;;;;;;;;;12.40;99.90;;;;;;5003298;28;20386;-69
2022/04/25 09:51:11;;;;;;;;;;;12.40;99.90;;;;;;5002103;28;19940;-70
2022/04/25 09:53:46;;;;;;;;;;;12.50;99.90;;;;;;4971532;28;20410;-69
2022/04/25 09:56:25;;;;;;;;;;;12.50;99.90;;;;;;4988893;28;20302;-70
2022/04/25 09:59:00;;;;;;;;;;;12.40;99.90;;;;;;5007193;28;19932;-70
2022/04/25 10:01:34;;;;;;;;;;;12.30;99.90;;;;;;4998552;28;19926;-70
2022/04/25 10:04:02;;;;;;;;;;;12.30;99.90;;;;;;4999094;28;20012;-70
2022/04/25 10:06:34;;;;;;;;;;;12.30;99.90;;;;;;4997495;28;20393;-70
2022/04/25 10:09:06;;;;;;;;;;;12.30;99.90;;;;;;5013851;28;20438;-69
2022/04/25 10:11:39;;;;;;;;;;;12.30;99.90;;;;;;5011221;28;20039;-69
2022/04/25 10:14:12;;;;;;;;;;;12.60;99.90;;;;;;5011643;28;20640;-70
2022/04/25 10:16:43;;;;;;;;;;;12.90;99.90;;;;;;5012454;28;20390;-70
2022/04/25 10:19:15;;;;;;;;;;;13.20;99.90;;;;;;5011224;28;19932;-70
2022/04/25 10:21:47;;;;;;;;;;;13.40;99.90;;;;;;5011084;28;19926;-69
2022/04/25 10:24:19;;;;;;;;;;;13.50;99.90;;;;;;5006464;28;19926;-70
2022/04/25 10:26:47;;;;;;;;;;;13.50;99.90;;;;;;4976357;28;20284;-70
2022/04/25 10:29:26;;;;;;;;;;;13.50;99.90;;;;;;5023107;28;20032;-70
2022/04/25 10:31:59;;;;;;;;;;;13.50;99.90;;;;;;4995433;28;19926;-68
2022/04/25 10:34:46;;;;;;;;;;;13.60;99.90;;;;;;5014440;28;19926;-69
2022/04/25 10:37:32;;;;;;;;;;;13.60;99.90;;;;;;5016089;28;19947;-69
2022/04/25 10:40:08;;;;;;;;;;;13.70;99.90;;;;;;5015156;28;19933;-69
2022/04/25 10:45:52;;;;;;;;;;;13.80;99.90;;;;;;5016106;28;20436;-68
2022/04/25 10:48:24;;;;;;;;;;;13.70;99.90;;;;;;4998822;28;20276;-69
2022/04/25 10:51:12;;;;;;;;;;;13.70;99.90;;;;;;5009043;28;20397;-68
2022/04/25 10:53:56;;;;;;;;;;;13.80;99.90;;;;;;5008654;28;20434;-70
2022/04/25 10:56:28;;;;;;;;;;;14.00;99.90;;;;;;5007517;28;19932;-71
2022/04/25 10:59:18;;;;;;;;;;;13.90;99.90;;;;;;5010523;28;19933;-69
2022/04/25 11:01:56;;;;;;;;;;;14.00;99.90;;;;;;5008939;28;19929;-70
2022/04/25 11:04:28;;;;;;;;;;;14.10;99.90;;;;;;5016706;28;19936;-69
2022/04/25 11:07:18;;;;;;;;;;;14.30;99.90;;;;;;5010864;28;19930;-70
2022/04/25 11:09:50;;;;;;;;;;;14.30;99.90;;;;;;4998148;28;20044;-70
2022/04/25 11:12:42;;;;;;;;;;;14.60;99.90;;;;;;5008728;28;19925;-70
2022/04/25 11:15:33;;;;;;;;;;;14.80;99.90;;;;;;5005090;28;20016;-72
2022/04/25 11:18:28;;;;;;;;;;;15.10;99.90;;;;;;5007742;28;19930;-72
2022/04/25 11:21:04;;;;;;;;;;;15.10;99.90;;;;;;5007504;28;20026;-72
2022/04/25 11:23:49;;;;;;;;;;;15.00;99.90;;;;;;5011452;28;19948;-72
2022/04/25 11:26:20;;;;;;;;;;;14.90;99.90;;;;;;5000767;28;20412;-69
2022/04/25 11:28:55;;;;;;;;;;;14.80;99.90;;;;;;4987933;28;19926;-70
2022/04/25 11:31:27;;;;;;;;;;;14.70;99.90;;;;;;5006507;28;19929;-70
2022/04/25 11:34:01;;;;;;;;;;;14.70;99.90;;;;;;4987641;28;19972;-70
2022/04/25 11:36:39;;;;;;;;;;;14.90;99.90;;;;;;5003354;28;19934;-70
2022/04/25 11:41:56;;;;;;;;;;;15.50;99.90;;;;;;5009542;28;19925;-69
2022/04/25 11:44:28;;;;;;;;;;;15.70;99.90;;;;;;5011954;28;19926;-69
2022/04/25 11:47:00;;;;;;;;;;;15.80;99.90;;;;;;5006756;28;19925;-69
2022/04/25 11:49:32;;;;;;;;;;;15.90;99.90;;;;;;5009865;28;19929;-69
2022/04/25 11:52:04;;;;;;;;;;;15.90;99.90;;;;;;5006533;28;20136;-71
2022/04/25 11:54:39;;;;;;;;;;;15.90;99.90;;;;;;5005735;28;19940;-71
2022/04/25 11:57:11;;;;;;;;;;;15.70;99.90;;;;;;5011101;28;19925;-69
2022/04/25 11:59:43;;;;;;;;;;;15.60;99.90;;;;;;5006823;28;19969;-70
2022/04/25 12:02:15;;;;;;;;;;;15.70;99.90;;;;;;5009523;28;19925;-69
2022/04/25 12:04:47;;;;;;;;;;;15.70;99.90;;;;;;5012241;28;20283;-69
2022/04/25 12:07:20;;;;;;;;;;;15.70;99.90;;;;;;5009893;28;19938;-69
2022/04/25 12:15:35;;;;;;;;;;;15.90;99.90;;;;;;5019462;28;20225;-71
2022/04/25 12:18:26;;;;;;;;;;;16.10;99.90;;;;;;4992907;28;19975;-72
2022/04/25 12:21:00;;;;;;;;;;;16.10;99.90;;;;;;5007918;28;19926;-71
2022/04/25 12:23:34;;;;;;;;;;;16.00;99.90;;;;;;4999628;28;19982;-69
2022/04/25 12:26:03;;;;;;;;;;;16.00;99.90;;;;;;5028018;28;19929;-71
2022/04/25 12:28:38;;;;;;;;;;;15.80;99.90;;;;;;5011373;28;19937;-71
2022/04/25 12:31:10;;;;;;;;;;;15.70;99.90;;;;;;5011087;28;20404;-68
2022/04/25 12:33:46;;;;;;;;;;;15.60;99.90;;;;;;5012099;28;19925;-69
2022/04/25 12:36:19;;;;;;;;;;;15.60;99.90;;;;;;5007890;28;20643;-69
2022/04/25 12:38:51;;;;;;;;;;;15.50;99.90;;;;;;5003024;28;19964;-70
2022/04/25 12:41:25;;;;;;;;;;;15.40;99.90;;;;;;4992845;28;19932;-70
2022/04/25 12:43:58;;;;;;;;;;;15.20;99.90;;;;;;4992470;28;20581;-71
2022/04/25 12:46:34;;;;;;;;;;;15.10;99.90;;;;;;5004223;28;20399;-70
2022/04/25 12:49:11;;;;;;;;;;;15.10;99.90;;;;;;5008245;28;20020;-70
2022/04/25 12:51:45;;;;;;;;;;;15.00;99.90;;;;;;5001233;28;19968;-70
2022/04/25 12:54:30;;;;;;;;;;;15.00;99.90;;;;;;5017735;28;19925;-71
2022/04/25 12:57:08;;;;;;;;;;;15.00;99.90;;;;;;4999912;28;19930;-70
2022/04/25 12:59:40;;;;;;;;;;;15.00;99.90;;;;;;5002335;28;19947;-72
2022/04/25 13:02:14;;;;;;;;;;;14.90;99.90;;;;;;5001300;28;19929;-72
2022/04/25 13:04:55;;;;;;;;;;;14.80;99.90;;;;;;5005750;28;20389;-69
2022/04/25 13:07:28;;;;;;;;;;;14.80;99.90;;;;;;5000093;28;19948;-72
2022/04/25 13:10:01;;;;;;;;;;;14.80;99.90;;;;;;5001668;28;20454;-71
2022/04/25 13:12:34;;;;;;;;;;;14.80;99.90;;;;;;5002061;28;19930;-72
2022/04/25 13:15:01;;;;;;;;;;;14.80;99.90;;;;;;4997265;28;19925;-72
2022/04/25 13:17:33;;;;;;;;;;;14.70;99.90;;;;;;5003295;28;20317;-72
2022/04/25 13:20:05;;;;;;;;;;;14.70;99.90;;;;;;4997133;28;20016;-72
2022/04/25 13:22:37;;;;;;;;;;;14.60;99.90;;;;;;5007222;28;20025;-70
2022/04/25 13:25:10;;;;;;;;;;;14.40;99.90;;;;;;5003158;28;20016;-70
2022/04/25 13:27:37;;;;;;;;;;;14.30;99.90;;;;;;5002697;28;19930;-70
2022/04/25 13:30:09;;;;;;;;;;;14.10;99.90;;;;;;5005209;28;19930;-70
2022/04/25 13:32:44;;;;;;;;;;;14.10;99.90;;;;;;5004004;28;20409;-70
2022/04/25 13:35:17;;;;;;;;;;;14.00;99.90;;;;;;5001583;28;19930;-70
2022/04/25 13:37:48;;;;;;;;;;;13.90;99.90;;;;;;5005006;28;20453;-69
2022/04/25 13:40:20;;;;;;;;;;;13.70;99.90;;;;;;5005291;28;20283;-70
2022/04/25 13:42:53;;;;;;;;;;;13.50;99.90;;;;;;5000855;28;19926;-71
2022/04/25 13:45:24;;;;;;;;;;;13.30;99.90;;;;;;5009079;28;19929;-70
2022/04/25 13:47:56;;;;;;;;;;;13.10;99.90;;;;;;5008922;28;19940;-70
2022/04/25 13:50:27;;;;;;;;;;;12.90;99.90;;;;;;5004048;28;19949;-70
2022/04/25 13:52:59;;;;;;;;;;;12.60;99.90;;;;;;5006317;28;20521;-71
2022/04/25 13:55:33;;;;;;;;;;;12.40;99.90;;;;;;5010514;28;19925;-72
2022/04/25 13:58:05;;;;;;;;;;;12.20;99.90;;;;;;5005356;28;19932;-71
2022/04/25 14:00:37;;;;;;;;;;;12.10;99.90;;;;;;5007261;28;20402;-73
2022/04/25 14:03:09;;;;;;;;;;;11.90;99.90;;;;;;5002106;28;19940;-73
2022/04/25 14:05:42;;;;;;;;;;;11.90;99.90;;;;;;5001785;28;19929;-71
2022/04/25 14:08:14;;;;;;;;;;;11.80;99.90;;;;;;5000608;28;20024;-72
2022/04/25 14:10:46;;;;;;;;;;;11.70;99.90;;;;;;5009877;28;19925;-72
2022/04/25 14:13:19;;;;;;;;;;;11.60;99.90;;;;;;5010855;28;19926;-72
2022/04/25 14:15:51;;;;;;;;;;;11.50;99.90;;;;;;5007608;28;19930;-72
2022/04/25 14:18:24;;;;;;;;;;;11.40;99.90;;;;;;5002613;28;20353;-72
2022/04/25 14:20:59;;;;;;;;;;;11.20;99.90;;;;;;5004787;28;19933;-72
2022/04/25 14:23:30;;;;;;;;;;;11.10;99.90;;;;;;5004245;28;19939;-72
2022/04/25 14:26:02;;;;;;;;;;;11.00;99.90;;;;;;5005354;28;19933;-72
2022/04/25 14:28:34;;;;;;;;;;;10.90;99.90;;;;;;5004538;28;19926;-72
2022/04/25 14:31:06;;;;;;;;;;;11.00;99.90;;;;;;5000928;28;19929;-72
2022/04/25 14:33:37;;;;;;;;;;;10.90;99.90;;;;;;5000942;28;19926;-72
2022/04/25 14:36:09;;;;;;;;;;;10.70;99.90;;;;;;5007307;28;19933;-72
2022/04/25 14:38:36;;;;;;;;;;;10.60;99.90;;;;;;5002470;28;19929;-72
2022/04/25 14:41:07;;;;;;;;;;;10.50;99.90;;;;;;5008371;28;19925;-72
2022/04/25 14:43:39;;;;;;;;;;;10.50;99.90;;;;;;5001041;28;19939;-72
2022/04/25 14:46:11;;;;;;;;;;;10.70;99.90;;;;;;5002572;28;20410;-72
2022/04/25 14:48:42;;;;;;;;;;;10.70;99.90;;;;;;4988491;28;19929;-73
2022/04/25 14:54:24;;;;;;;;;;;10.80;99.90;;;;;;4999183;28;19925;-71
2022/04/25 14:56:56;;;;;;;;;;;10.90;99.90;;;;;;5010212;28;19935;-71
2022/04/25 14:59:28;;;;;;;;;;;11.00;99.90;;;;;;5011973;28;19926;-69
2022/04/25 15:01:59;;;;;;;;;;;11.20;99.90;;;;;;4991287;28;19930;-69
2022/04/25 15:04:31;;;;;;;;;;;11.30;99.90;;;;;;5000855;28;19960;-69
2022/04/25 15:07:03;;;;;;;;;;;11.30;99.90;;;;;;5026423;28;20382;-69
2022/04/25 15:09:34;;;;;;;;;;;11.40;99.90;;;;;;4998094;28;19933;-70
2022/04/25 15:12:06;;;;;;;;;;;11.50;99.90;;;;;;5002295;28;19925;-70
2022/04/25 15:14:38;;;;;;;;;;;11.50;99.90;;;;;;5008112;28;20398;-69
2022/04/25 15:17:05;;;;;;;;;;;11.60;99.90;;;;;;5013845;28;19933;-69
2022/04/25 15:19:37;;;;;;;;;;;11.60;99.90;;;;;;5009377;28;19925;-69
2022/04/25 15:22:10;;;;;;;;;;;11.60;99.90;;;;;;5007429;28;19957;-69
2022/04/25 15:24:41;;;;;;;;;;;11.60;99.90;;;;;;5007779;28;19940;-69
2022/04/25 15:27:15;;;;;;;;;;;11.60;99.90;;;;;;5005066;28;19926;-69
2022/04/25 15:29:46;;;;;;;;;;;11.60;99.90;;;;;;5029167;28;20009;-69